createdAt,value
2022-08-17T06:03:37.375Z,68.30
2022-08-17T06:14:26.752Z,65.54
2022-08-17T06:17:31.082Z,62.80
2022-08-17T06:20:45.604Z,61.09
2022-08-17T06:24:10.405Z,59.15
2022-08-17T06:27:55.701Z,58.37
2022-08-17T06:31:19.099Z,57.53
2022-08-17T06:45:20.203Z,56.50
2022-08-17T06:48:24.872Z,56.02
2022-08-17T06:51:40.913Z,54.24
2022-08-17T06:55:02.838Z,53.62
2022-08-17T07:01:52.295Z,49.88
2022-08-17T07:04:55.163Z,50.09
2022-08-17T07:08:04.992Z,50.96
2022-08-17T07:11:13.085Z,51.53
2022-08-17T07:17:53.577Z,49.87
2022-08-17T07:21:11.960Z,46.12
2022-08-17T07:24:44.107Z,44.71
2022-08-17T07:28:06.006Z,46.01
2022-08-17T07:31:13.311Z,43.43
2022-08-17T07:34:16.185Z,46.54
2022-08-17T07:37:19.420Z,46.01
2022-08-17T07:40:35.323Z,43.72
2022-08-17T07:43:52.275Z,44.76
2022-08-17T07:47:14.472Z,43.32
2022-08-17T07:50:27.818Z,42.89
2022-08-17T07:53:31.959Z,42.41
2022-08-17T07:56:48.437Z,42.44
2022-08-17T08:00:01.716Z,40.27
2022-08-17T08:03:20.315Z,39.67
2022-08-17T08:06:26.363Z,38.48
2022-08-17T08:09:39.925Z,37.55
2022-08-17T08:13:14.605Z,38.59
2022-08-17T08:16:17.325Z,36.38
2022-08-17T08:19:21.154Z,34.57
2022-08-17T08:22:38.339Z,34.94
2022-08-17T08:26:08.238Z,33.43
2022-08-17T08:29:29.825Z,32.42
2022-08-17T08:33:04.190Z,31.58
2022-08-17T08:37:13.003Z,30.51
2022-08-17T08:41:00.983Z,30.30
2022-08-17T08:44:20.917Z,28.94
2022-08-17T08:48:55.879Z,29.75
2022-08-17T08:52:16.849Z,27.89
2022-08-17T08:55:59.027Z,27.84
2022-08-17T08:59:04.621Z,28.62
2022-08-17T09:02:46.789Z,27.99
2022-08-17T09:06:37.644Z,28.85
2022-08-17T09:09:59.377Z,27.12
2022-08-17T09:13:19.621Z,26.51
2022-08-17T09:16:33.126Z,25.78
2022-08-17T09:19:44.815Z,25.60
2022-08-17T09:22:53.562Z,26.54
2022-08-17T09:26:05.424Z,25.78
2022-08-17T09:29:12.939Z,25.55
2022-08-17T09:32:24.768Z,24.65
2022-08-17T09:35:36.944Z,24.39
2022-08-17T09:38:49.072Z,23.62
2022-08-17T09:42:10.761Z,23.48
2022-08-17T09:45:29.073Z,24.31
2022-08-17T09:48:55.375Z,24.33
2022-08-17T09:52:15.569Z,23.03
2022-08-17T09:55:22.574Z,22.67
2022-08-17T09:58:52.275Z,23.02
2022-08-17T10:02:13.277Z,22.30
2022-08-17T10:05:47.555Z,20.32
2022-08-17T10:08:53.247Z,18.27
2022-08-17T10:12:17.767Z,16.87
2022-08-17T10:15:44.831Z,19.34
2022-08-17T10:19:05.042Z,19.01
2022-08-17T10:22:40.245Z,19.23
2022-08-17T10:26:12.970Z,20.30
2022-08-17T10:29:24.360Z,21.61
2022-08-17T10:32:57.621Z,20.51
2022-08-17T10:36:05.341Z,21.21
2022-08-17T10:39:52.214Z,22.24
2022-08-17T10:43:00.687Z,21.08
2022-08-17T10:46:30.417Z,19.21
2022-08-17T10:49:47.805Z,16.73
2022-08-17T10:52:51.286Z,16.56
2022-08-17T10:56:12.219Z,18.16
2022-08-17T10:59:37.006Z,20.41
2022-08-17T11:02:52.642Z,20.90
2022-08-17T11:06:06.851Z,21.46
2022-08-17T11:09:15.401Z,20.99
2022-08-17T11:12:20.992Z,21.22
2022-08-17T11:15:38.560Z,20.91
2022-08-17T11:19:22.513Z,19.58
2022-08-17T11:22:33.605Z,17.70
2022-08-17T11:25:39.432Z,18.78
2022-08-17T11:28:52.780Z,20.67
2022-08-17T11:32:13.935Z,21.13
2022-08-17T11:35:20.527Z,21.38
2022-08-17T11:38:49.572Z,21.01
2022-08-17T11:42:17.917Z,20.83
2022-08-17T11:45:35.958Z,22.01
2022-08-17T11:49:04.653Z,22.29
2022-08-17T11:52:14.024Z,22.29
2022-08-17T11:55:36.320Z,21.72
2022-08-17T11:58:44.246Z,21.48
2022-08-17T12:01:56.741Z,22.77
2022-08-17T12:05:14.787Z,23.30
2022-08-17T12:08:21.349Z,22.88
2022-08-17T12:11:55.601Z,22.53
2022-08-17T12:15:10.049Z,21.75
2022-08-17T12:18:28.967Z,21.43
2022-08-17T12:21:43.567Z,21.83
2022-08-17T12:24:59.354Z,23.01
2022-08-17T12:28:06.582Z,22.42
2022-08-17T12:31:30.635Z,23.49
2022-08-17T12:34:40.842Z,23.27
2022-08-17T12:37:47.123Z,22.16
2022-08-17T12:40:58.146Z,23.66
2022-08-17T12:44:06.725Z,23.62
2022-08-17T12:47:21.980Z,23.79
2022-08-17T12:50:29.259Z,24.18
2022-08-17T12:53:35.802Z,24.08
2022-08-17T12:56:39.286Z,23.82
2022-08-17T12:59:46.167Z,23.83
2022-08-17T13:03:15.709Z,23.85
2022-08-17T13:06:29.069Z,24.70
2022-08-17T13:09:35.888Z,26.03
2022-08-17T13:12:43.086Z,25.42
2022-08-17T13:16:01.346Z,24.56
2022-08-17T13:19:15.342Z,23.84
2022-08-17T13:22:23.558Z,23.82
2022-08-17T13:25:27.766Z,23.25
2022-08-17T13:28:36.394Z,25.28
2022-08-17T13:31:46.575Z,25.85
2022-08-17T13:35:14.324Z,25.40
2022-08-17T13:38:47.232Z,25.68
2022-08-17T13:41:52.973Z,25.37
2022-08-17T13:44:55.833Z,24.84
2022-08-17T13:48:16.269Z,23.90
2022-08-17T13:51:43.868Z,24.04
2022-08-17T13:54:51.314Z,23.59
2022-08-17T13:58:04.214Z,23.70
2022-08-17T14:01:30.906Z,24.19
2022-08-17T14:04:35.124Z,24.65
2022-08-17T14:07:40.385Z,23.91
2022-08-17T14:10:57.831Z,24.48
2022-08-17T14:14:00.923Z,24.76
2022-08-17T14:17:04.659Z,24.56
2022-08-17T14:20:10.959Z,24.73
2022-08-17T14:23:14.553Z,23.69
2022-08-17T14:26:17.660Z,24.03
2022-08-17T14:29:22.418Z,23.91
2022-08-17T14:32:28.546Z,23.97
2022-08-17T14:35:34.604Z,24.10
2022-08-17T14:38:37.881Z,24.20
2022-08-17T14:41:41.884Z,23.09
2022-08-17T14:44:44.422Z,22.93
2022-08-17T14:47:47.431Z,23.54
2022-08-17T14:50:50.320Z,23.20
2022-08-17T14:53:53.123Z,23.96
2022-08-17T14:57:00.882Z,23.66
2022-08-17T15:00:19.438Z,23.56
2022-08-17T15:03:23.403Z,23.98
2022-08-17T15:06:26.413Z,24.13
2022-08-17T15:09:29.134Z,24.09
2022-08-17T15:12:34.773Z,23.89
2022-08-17T15:15:37.563Z,23.79
2022-08-17T15:18:41.269Z,23.57
2022-08-17T15:21:47.051Z,23.95
2022-08-17T15:24:50.031Z,23.87
